Time;durP1;ratioP1;P1;durP2;ratioP2;P2;SDS_P1;SDS_P2;PMS_P1;PMS_P2;Temp;Humidity;BMP_temperature;BMP_pressure;BME280_temperature;BME280_humidity;BME280_pressure;Samples;Min_cycle;Max_cycle;Signal;HPM_P1;HPM_P2
2020/12/30 00:01:08;;;;;;;17.23;10.18;;;;;;;3.79;56.84;95793.30;1807981;79;21122;-54
2020/12/30 00:03:36;;;;;;;13.58;7.58;;;;;;;3.65;57.24;95788.11;1817299;78;21495;-54
2020/12/30 00:06:05;;;;;;;19.15;11.43;;;;;;;3.60;57.69;95787.11;1789847;79;21146;-53
2020/12/30 00:08:32;;;;;;;16.12;9.25;;;;;;;3.63;57.60;95785.63;1815099;79;21201;-53
2020/12/30 00:10:59;;;;;;;17.25;8.98;;;;;;;3.62;57.62;95789.13;1790720;78;21161;-54
2020/12/30 00:13:28;;;;;;;15.08;8.20;;;;;;;3.62;57.76;95789.59;1791582;79;21095;-54
2020/12/30 00:15:57;;;;;;;21.33;11.30;;;;;;;3.60;57.97;95802.50;1786225;79;21063;-54
2020/12/30 00:18:25;;;;;;;15.28;7.55;;;;;;;3.60;57.81;95806.78;1785482;79;21475;-54
2020/12/30 00:20:53;;;;;;;15.08;8.75;;;;;;;3.55;58.24;95807.49;1809078;79;21391;-53
2020/12/30 00:23:21;;;;;;;19.65;10.03;;;;;;;3.43;58.91;95812.84;1785022;80;21122;-53
2020/12/30 00:25:50;;;;;;;13.25;8.30;;;;;;;3.23;59.98;95816.49;1785140;79;21440;-55
2020/12/30 00:28:18;;;;;;;17.23;8.85;;;;;;;3.07;62.01;95822.88;1780847;78;21144;-53
2020/12/30 00:30:46;;;;;;;10.80;4.95;;;;;;;3.20;62.61;95835.88;1797710;78;21082;-54
2020/12/30 00:33:14;;;;;;;8.35;5.37;;;;;;;3.52;62.65;95835.88;1790319;80;21467;-54
2020/12/30 00:35:42;;;;;;;7.83;3.70;;;;;;;3.89;61.80;95832.11;1810630;78;21133;-54
2020/12/30 00:38:10;;;;;;;5.42;3.00;;;;;;;4.26;60.80;95841.59;1818981;78;21128;-54
2020/12/30 00:40:38;;;;;;;3.60;2.10;;;;;;;4.53;60.19;95830.16;1825715;78;21120;-54
2020/12/30 00:43:07;;;;;;;;;;;;;;;4.81;59.50;95834.13;1787234;78;21624;-54
2020/12/30 00:45:34;;;;;;;2.72;1.57;;;;;;;5.09;58.90;95828.97;1770376;80;21040;-54
2020/12/30 00:48:02;;;;;;;1.62;1.30;;;;;;;5.35;58.34;95838.13;1777254;80;21575;-54
2020/12/30 00:50:29;;;;;;;1.37;1.27;;;;;;;5.51;57.85;95834.97;1775395;80;21175;-54
2020/12/30 00:52:57;;;;;;;2.85;1.32;;;;;;;5.60;57.66;95829.70;1797944;79;21047;-54
2020/12/30 00:55:26;;;;;;;2.65;1.15;;;;;;;5.63;57.69;95833.38;1822364;78;21481;-54
2020/12/30 00:58:01;;;;;;;2.20;1.35;;;;;;;5.66;57.70;95838.80;1785171;78;22477;-53
2020/12/30 01:00:29;;;;;;;1.20;1.10;;;;;;;5.66;57.79;95828.03;1780882;79;21219;-53
2020/12/30 01:03:10;;;;;;;1.70;1.30;;;;;;;5.73;57.79;95825.90;1888186;75;27905;-53
2020/12/30 01:05:38;;;;;;;1.17;0.95;;;;;;;5.71;57.82;95829.04;1783304;79;21585;-54
2020/12/30 01:08:05;;;;;;;1.42;1.32;;;;;;;5.77;57.71;95822.66;1838247;77;21370;-54
2020/12/30 01:10:33;;;;;;;2.42;1.50;;;;;;;5.84;57.51;95813.17;1824299;77;20982;-53
2020/12/30 01:13:01;;;;;;;2.83;1.60;;;;;;;5.94;57.29;95811.27;1822373;77;21506;-54
2020/12/30 01:15:29;;;;;;;3.17;1.62;;;;;;;5.98;57.08;95811.02;1828270;77;21071;-54
2020/12/30 01:17:57;;;;;;;2.65;1.50;;;;;;;6.01;56.98;95804.38;1829474;77;21523;-54
2020/12/30 01:20:24;;;;;;;2.37;1.47;;;;;;;6.05;56.81;95801.98;1810964;77;21265;-54
2020/12/30 01:22:53;;;;;;;2.08;1.50;;;;;;;6.09;56.72;95802.61;1781480;79;21022;-55
2020/12/30 01:25:20;;;;;;;1.92;1.37;;;;;;;6.14;56.49;95808.75;1775420;80;20931;-53
2020/12/30 01:27:48;;;;;;;2.08;1.40;;;;;;;6.20;56.28;95805.75;1818210;77;21072;-54
2020/12/30 01:30:15;;;;;;;1.35;1.20;;;;;;;6.29;55.99;95806.92;1824403;77;21081;-54
2020/12/30 01:32:44;;;;;;;1.50;1.02;;;;;;;6.37;55.80;95810.63;1838815;78;22376;-53
2020/12/30 01:35:12;;;;;;;2.20;1.02;;;;;;;6.45;55.65;95810.95;1835592;77;21489;-53
2020/12/30 01:37:40;;;;;;;;;;;;;;;6.50;55.40;95813.70;1840828;77;21046;-53
2020/12/30 01:40:09;;;;;;;2.40;1.50;;;;;;;6.54;55.35;95815.94;1825758;77;20229;-53
2020/12/30 01:42:48;;;;;;;2.27;1.07;;;;;;;6.54;55.23;95816.41;1817695;77;21049;-54
2020/12/30 01:45:16;;;;;;;2.87;1.15;;;;;;;6.56;55.00;95813.27;1825325;77;21416;-54
2020/12/30 01:47:48;;;;;;;2.15;1.20;;;;;;;6.61;54.81;95817.20;1849881;77;21096;-54
2020/12/30 01:50:15;;;;;;;2.08;1.45;;;;;;;6.65;54.71;95813.13;1830715;77;21117;-54
2020/12/30 01:52:43;;;;;;;1.55;1.45;;;;;;;6.61;54.65;95814.63;1786563;77;21100;-54
2020/12/30 01:55:13;;;;;;;2.08;1.60;;;;;;;6.56;54.77;95814.55;1787410;79;21475;-53
2020/12/30 01:57:41;;;;;;;2.75;1.70;;;;;;;6.45;55.00;95806.27;1760748;80;21404;-53
2020/12/30 02:00:09;;;;;;;2.52;1.70;;;;;;;6.35;55.09;95800.90;1772525;79;21581;-53
2020/12/30 02:02:38;;;;;;;4.92;2.40;;;;;;;6.25;55.25;95794.23;1793576;80;21041;-53
2020/12/30 02:05:08;;;;;;;2.67;2.00;;;;;;;6.18;55.38;95789.11;1764742;80;21120;-53
2020/12/30 02:07:37;;;;;;;2.02;1.50;;;;;;;6.15;55.61;95792.35;1782216;79;21054;-53
2020/12/30 02:10:05;;;;;;;5.10;3.20;;;;;;;6.13;55.59;95789.06;1763593;79;21267;-53
2020/12/30 02:12:33;;;;;;;4.17;2.58;;;;;;;6.12;55.64;95788.69;1769205;80;21605;-53
2020/12/30 02:15:02;;;;;;;1.22;0.98;;;;;;;6.11;55.60;95785.77;1777680;80;21183;-54
2020/12/30 02:17:30;;;;;;;1.67;1.20;;;;;;;6.11;55.67;95784.48;1848865;77;21041;-53
2020/12/30 02:19:57;;;;;;;2.80;1.80;;;;;;;6.14;55.57;95788.14;1833381;77;21649;-53
2020/12/30 02:22:25;;;;;;;4.78;3.65;;;;;;;6.08;55.76;95789.36;1834741;77;21964;-54
2020/12/30 02:24:53;;;;;;;6.92;4.45;;;;;;;5.94;56.02;95790.23;1818342;77;21135;-53
2020/12/30 02:27:21;;;;;;;9.38;4.85;;;;;;;5.79;56.49;95780.91;1841295;77;21605;-53
2020/12/30 02:29:49;;;;;;;8.10;4.95;;;;;;;5.63;56.55;95785.77;1827096;77;21066;-53
2020/12/30 02:32:17;;;;;;;5.65;4.25;;;;;;;5.44;57.04;95792.52;1820999;77;21026;-53
2020/12/30 02:34:44;;;;;;;6.20;3.83;;;;;;;5.24;57.20;95791.66;1826078;77;21194;-53
2020/12/30 02:37:12;;;;;;;6.08;3.67;;;;;;;4.98;57.99;95793.64;1823400;77;21168;-53
2020/12/30 02:39:40;;;;;;;8.55;4.72;;;;;;;4.64;58.67;95799.14;1835965;77;21030;-54
2020/12/30 02:42:08;;;;;;;6.23;4.13;;;;;;;4.29;59.65;95813.60;1799438;79;21056;-53
2020/12/30 02:44:36;;;;;;;4.35;3.40;;;;;;;4.12;60.08;95808.98;1819865;77;21073;-53
2020/12/30 02:47:03;;;;;;;4.50;3.12;;;;;;;4.10;60.32;95810.81;1817512;77;21161;-53
2020/12/30 02:49:31;;;;;;;4.72;3.33;;;;;;;4.13;60.43;95812.36;1818352;78;21085;-54
2020/12/30 02:51:59;;;;;;;7.72;3.90;;;;;;;4.20;60.35;95811.94;1808235;77;21041;-53
2020/12/30 02:54:26;;;;;;;7.17;5.35;;;;;;;4.23;60.69;95800.67;1822538;77;21450;-53
2020/12/30 02:56:54;;;;;;;8.80;6.78;;;;;;;4.19;61.22;95801.31;1821039;77;21116;-54
2020/12/30 02:59:22;;;;;;;6.20;4.92;;;;;;;4.25;61.50;95801.41;1810300;77;21349;-53
2020/12/30 03:01:49;;;;;;;11.25;6.95;;;;;;;4.35;61.16;95792.24;1777603;79;21577;-53
2020/12/30 03:04:17;;;;;;;11.97;7.75;;;;;;;4.42;60.86;95787.57;1762057;81;21133;-54
2020/12/30 03:06:45;;;;;;;7.03;4.20;;;;;;;4.45;60.70;95773.73;1756735;80;21566;-53
2020/12/30 03:09:13;;;;;;;11.40;6.85;;;;;;;4.49;60.77;95775.19;1834131;77;21105;-53
2020/12/30 03:11:45;;;;;;;11.43;7.17;;;;;;;4.54;60.67;95771.45;1846504;77;21561;-54
2020/12/30 03:14:12;;;;;;;5.65;4.05;;;;;;;4.58;60.17;95761.80;1829992;77;21145;-53
2020/12/30 03:16:40;;;;;;;6.37;5.07;;;;;;;4.58;59.91;95749.77;1823713;77;21040;-54
2020/12/30 03:19:08;;;;;;;8.83;5.62;;;;;;;4.55;59.95;95738.39;1803840;77;21055;-53
2020/12/30 03:21:36;;;;;;;9.07;6.73;;;;;;;4.56;60.29;95734.10;1793510;79;21565;-54
2020/12/30 03:24:04;;;;;;;4.30;3.90;;;;;;;4.55;60.02;95731.16;1762349;81;21277;-54
2020/12/30 03:26:33;;;;;;;4.37;3.20;;;;;;;4.52;60.47;95727.48;1791255;79;21167;-56
2020/12/30 03:29:01;;;;;;;;;;;;;;;4.58;60.53;95733.55;1785854;79;21054;-54
2020/12/30 03:31:30;;;;;;;3.75;3.15;;;;;;;4.65;60.36;95733.53;1776708;80;20243;-54
2020/12/30 03:33:58;;;;;;;;;;;;;;;4.72;60.25;95727.11;1801685;79;21049;-55
2020/12/30 03:36:25;;;;;;;4.25;3.40;;;;;;;4.82;60.00;95736.38;1776656;79;22384;-54
2020/12/30 03:38:54;;;;;;;17.55;8.70;;;;;;;4.85;59.80;95737.48;1781820;79;21121;-54
2020/12/30 03:41:21;;;;;;;26.62;12.20;;;;;;;4.88;59.67;95735.98;1826509;77;21117;-54
2020/12/30 03:43:49;;;;;;;14.38;7.03;;;;;;;4.91;59.51;95738.83;1841705;77;21025;-54
2020/12/30 03:46:18;;;;;;;;;;;;;;;4.90;59.55;95738.02;1813146;77;21042;-54
2020/12/30 03:48:48;;;;;;;20.45;10.95;;;;;;;4.83;59.77;95730.30;1806399;79;21199;-53
2020/12/30 03:51:17;;;;;;;;;;;;;;;4.71;59.66;95738.30;1843444;77;21049;-54
2020/12/30 03:53:45;;;;;;;9.10;5.87;;;;;;;4.42;61.03;95734.48;1816506;77;20216;-53
2020/12/30 03:56:12;;;;;;;7.30;4.33;;;;;;;4.23;61.20;95729.59;1834092;77;21589;-53
2020/12/30 03:58:40;;;;;;;5.28;3.60;;;;;;;4.04;62.04;95727.27;1835368;77;21120;-54
2020/12/30 04:01:10;;;;;;;11.48;5.12;;;;;;;3.96;62.61;95728.16;1786471;79;21249;-54
2020/12/30 04:03:37;;;;;;;5.12;3.50;;;;;;;4.04;62.30;95728.55;1742335;82;21510;-53
2020/12/30 04:06:05;;;;;;;5.53;3.15;;;;;;;4.15;62.43;95729.22;1756289;80;21135;-53
2020/12/30 04:08:34;;;;;;;4.45;2.92;;;;;;;4.27;62.09;95727.66;1807216;77;21164;-54
2020/12/30 04:11:02;;;;;;;3.83;2.70;;;;;;;4.35;62.01;95730.60;1848696;77;21243;-53
2020/12/30 04:13:29;;;;;;;3.80;2.45;;;;;;;4.48;61.74;95728.59;1824290;77;21372;-54
2020/12/30 04:15:57;;;;;;;4.87;3.02;;;;;;;4.56;61.46;95725.11;1825566;78;21057;-54
2020/12/30 04:18:24;;;;;;;5.25;3.55;;;;;;;4.61;61.06;95725.66;1828925;77;21555;-54
2020/12/30 04:20:52;;;;;;;3.58;2.77;;;;;;;4.48;60.89;95719.14;1800951;79;21176;-54
2020/12/30 04:23:20;;;;;;;3.67;2.50;;;;;;;4.32;62.13;95724.83;1816653;77;21068;-54
2020/12/30 04:25:48;;;;;;;4.55;2.40;;;;;;;4.36;62.19;95723.74;1821177;77;21261;-54
2020/12/30 04:28:16;;;;;;;2.90;2.20;;;;;;;4.49;61.81;95726.38;1844462;77;21180;-54
2020/12/30 04:30:44;;;;;;;3.50;2.20;;;;;;;4.63;61.23;95719.14;1837966;77;21121;-54
2020/12/30 04:33:12;;;;;;;4.28;3.17;;;;;;;4.72;60.72;95715.55;1849063;77;21168;-55
2020/12/30 04:35:40;;;;;;;8.43;5.55;;;;;;;4.85;60.36;95718.20;1828353;77;21061;-54
2020/12/30 04:38:07;;;;;;;5.80;3.83;;;;;;;4.93;60.02;95710.84;1820383;77;21645;-54
2020/12/30 04:40:35;;;;;;;4.95;3.15;;;;;;;4.98;59.59;95711.38;1837649;77;21534;-54
2020/12/30 04:43:03;;;;;;;3.95;2.70;;;;;;;4.88;59.93;95714.59;1811574;77;21538;-55
2020/12/30 04:45:30;;;;;;;5.47;3.02;;;;;;;4.84;60.17;95713.97;1824985;77;21133;-54
2020/12/30 04:47:58;;;;;;;6.12;3.85;;;;;;;4.91;60.14;95716.52;1779756;80;21052;-54
2020/12/30 04:50:27;;;;;;;15.35;8.73;;;;;;;4.97;59.99;95719.99;1828641;77;21251;-53
2020/12/30 04:52:55;;;;;;;14.07;8.18;;;;;;;5.01;59.60;95721.09;1793603;77;21093;-53
2020/12/30 04:55:24;;;;;;;17.50;9.05;;;;;;;4.99;59.58;95723.76;1846732;77;21148;-54
2020/12/30 04:58:01;;;;;;;18.45;7.50;;;;;;;4.95;59.56;95732.13;1816370;77;21176;-54
2020/12/30 05:00:28;;;;;;;11.88;6.50;;;;;;;4.94;59.65;95721.47;1822103;77;21553;-54
2020/12/30 05:02:57;;;;;;;16.02;8.03;;;;;;;4.94;59.73;95710.37;1807549;77;22130;-54
2020/12/30 05:05:25;;;;;;;14.87;8.28;;;;;;;4.96;59.72;95709.33;1832677;77;21104;-54
2020/12/30 05:07:55;;;;;;;15.28;7.30;;;;;;;4.97;59.74;95717.89;1827241;77;21175;-54
2020/12/30 05:10:23;;;;;;;11.88;6.15;;;;;;;4.93;59.77;95717.27;1799317;78;21548;-54
2020/12/30 05:12:54;;;;;;;15.25;8.35;;;;;;;4.90;59.89;95724.31;1819185;78;21020;-54
2020/12/30 05:15:22;;;;;;;13.53;7.70;;;;;;;4.86;59.69;95726.25;1832602;77;22266;-54
2020/12/30 05:17:52;;;;;;;16.57;7.67;;;;;;;4.70;59.92;95733.25;1852532;77;21069;-54
2020/12/30 05:20:21;;;;;;;15.60;9.33;;;;;;;4.54;60.16;95725.20;1844534;77;21089;-53
2020/12/30 05:22:48;;;;;;;16.10;10.10;;;;;;;4.36;60.51;95732.27;1794024;78;21041;-53
2020/12/30 05:25:16;;;;;;;16.90;9.93;;;;;;;4.19;61.04;95740.97;1828557;77;21137;-53
2020/12/30 05:27:44;;;;;;;14.28;7.58;;;;;;;4.05;61.52;95732.78;1835250;77;21163;-54
2020/12/30 05:30:12;;;;;;;12.50;7.70;;;;;;;3.92;62.19;95725.42;1825109;77;21141;-54
2020/12/30 05:32:40;;;;;;;8.03;5.10;;;;;;;3.83;62.38;95726.79;1843577;77;21735;-54
2020/12/30 05:35:08;;;;;;;7.40;4.60;;;;;;;3.79;62.68;95727.86;1825708;77;21041;-53
2020/12/30 05:37:36;;;;;;;6.10;3.90;;;;;;;3.87;62.97;95741.55;1827246;77;21104;-53
2020/12/30 05:40:19;;;;;;;8.45;3.87;;;;;;;3.89;63.06;95723.03;1829189;77;21779;-54
2020/12/30 05:42:47;;;;;;;5.37;4.00;;;;;;;3.92;63.19;95727.98;1824836;77;21172;-53
2020/12/30 05:45:19;;;;;;;5.78;3.45;;;;;;;4.02;63.11;95725.72;1833133;77;21148;-53
2020/12/30 05:47:49;;;;;;;4.70;3.47;;;;;;;4.13;62.99;95724.64;1819201;78;21050;-53
2020/12/30 05:50:23;;;;;;;5.90;4.00;;;;;;;4.24;62.73;95725.27;1797874;78;21576;-54
2020/12/30 05:52:54;;;;;;;5.78;4.37;;;;;;;4.34;62.45;95718.70;1742275;80;22348;-57
2020/12/30 05:55:26;;;;;;;8.23;5.30;;;;;;;4.42;62.12;95720.34;1757247;80;21184;-54
2020/12/30 05:57:56;;;;;;;12.60;6.85;;;;;;;4.48;61.86;95732.45;1774502;80;21121;-54
2020/12/30 06:00:29;;;;;;;8.48;5.90;;;;;;;4.42;61.79;95736.20;1764873;80;21120;-54
2020/12/30 06:02:58;;;;;;;7.17;4.60;;;;;;;4.33;61.98;95741.43;1784452;79;21089;-54
2020/12/30 06:05:28;;;;;;;9.60;5.53;;;;;;;4.29;62.17;95741.70;1749361;81;21290;-54
2020/12/30 06:07:56;;;;;;;13.22;7.90;;;;;;;4.17;62.46;95739.40;1739441;81;21147;-54
2020/12/30 06:10:26;;;;;;;18.32;10.60;;;;;;;4.12;62.74;95732.42;1751187;80;21569;-54
2020/12/30 06:13:01;;;;;;;20.68;11.40;;;;;;;4.11;63.02;95742.31;1743768;80;21157;-55
2020/12/30 06:15:31;;;;;;;16.20;9.75;;;;;;;4.03;63.29;95747.45;1760781;80;21038;-54
2020/12/30 06:18:00;;;;;;;10.72;7.15;;;;;;;3.95;63.65;95741.94;1729640;83;22126;-53
2020/12/30 06:20:36;;;;;;;7.95;6.00;;;;;;;3.98;63.85;95740.48;1729893;81;21110;-53
2020/12/30 06:23:07;;;;;;;10.82;6.42;;;;;;;4.05;64.01;95744.33;1705699;81;21205;-54
2020/12/30 06:25:40;;;;;;;9.63;6.45;;;;;;;4.19;63.94;95744.83;1732372;81;21214;-53
2020/12/30 06:28:20;;;;;;;11.28;7.80;;;;;;;4.43;63.60;95739.14;1883086;75;26685;-54
2020/12/30 06:30:50;;;;;;;10.15;7.33;;;;;;;4.48;63.37;95729.41;1775998;79;21073;-54
2020/12/30 06:33:23;;;;;;;;;;;;;;;4.64;63.09;95732.33;1745901;82;22160;-54
2020/12/30 06:35:56;;;;;;;9.75;5.60;;;;;;;4.74;62.64;95727.84;1723875;82;20217;-54
2020/12/30 06:38:30;;;;;;;11.40;7.25;;;;;;;4.82;62.37;95729.10;1804359;77;21093;-54
2020/12/30 06:41:06;;;;;;;14.47;9.30;;;;;;;4.87;62.18;95727.92;1823711;77;21561;-54
2020/12/30 06:43:54;;;;;;;16.23;10.08;;;;;;;4.94;61.94;95727.08;1801521;77;21085;-53
2020/12/30 06:46:29;;;;;;;64.55;39.13;;;;;;;5.00;61.63;95729.72;1754502;81;22184;-54
2020/12/30 06:49:04;;;;;;;35.43;23.32;;;;;;;4.97;61.42;95723.03;1827791;77;21002;-54
2020/12/30 06:51:40;;;;;;;26.00;15.15;;;;;;;4.94;61.46;95726.61;1845073;77;21140;-54
2020/12/30 06:54:11;;;;;;;19.95;11.68;;;;;;;4.88;61.57;95726.98;1819876;77;21164;-54
2020/12/30 06:56:48;;;;;;;29.27;14.03;;;;;;;4.84;61.71;95717.82;1840796;77;21141;-54
2020/12/30 06:59:27;;;;;;;29.50;15.53;;;;;;;4.87;61.75;95725.78;1799021;79;22123;-53
2020/12/30 07:02:06;;;;;;;43.45;19.85;;;;;;;4.88;61.81;95719.27;1819406;78;21541;-54
2020/12/30 07:04:35;;;;;;;49.23;22.17;;;;;;;4.92;61.67;95710.93;1788229;77;21064;-55
2020/12/30 07:07:21;;;;;;;42.05;17.82;;;;;;;4.84;61.74;95715.25;1818176;78;21478;-54
2020/12/30 07:09:49;;;;;;;27.50;14.63;;;;;;;4.78;61.98;95716.91;1810650;77;21173;-55
2020/12/30 07:12:21;;;;;;;30.95;14.80;;;;;;;4.71;62.25;95722.88;1828256;77;21387;-54
2020/12/30 07:14:50;;;;;;;34.23;16.20;;;;;;;4.73;62.45;95722.80;1764817;80;21137;-55
2020/12/30 07:17:20;;;;;;;33.13;17.23;;;;;;;4.82;62.41;95722.23;1834402;78;21207;-54
2020/12/30 07:19:49;;;;;;;29.67;16.70;;;;;;;4.92;62.24;95718.64;1821925;78;21795;-55
2020/12/30 07:22:17;;;;;;;27.10;14.25;;;;;;;5.05;62.09;95715.67;1822130;77;26432;-54
2020/12/30 07:24:56;;;;;;;31.50;15.95;;;;;;;5.19;61.74;95716.55;1828281;77;21337;-53
2020/12/30 07:27:29;;;;;;;36.75;18.10;;;;;;;5.38;61.63;95716.19;1794908;79;21156;-55
2020/12/30 07:29:57;;;;;;;35.95;17.55;;;;;;;5.62;61.13;95720.23;1766761;80;21177;-55
2020/12/30 07:32:25;;;;;;;31.50;16.87;;;;;;;5.80;60.51;95715.17;1785414;80;21065;-54
2020/12/30 07:34:53;;;;;;;27.22;15.05;;;;;;;5.96;60.12;95711.61;1764643;79;21139;-54
2020/12/30 07:37:22;;;;;;;31.52;15.35;;;;;;;6.11;59.69;95709.79;1828132;77;21181;-55
2020/12/30 07:39:49;;;;;;;28.77;16.73;;;;;;;6.20;59.12;95709.16;1820269;78;21526;-53
2020/12/30 07:42:20;;;;;;;34.92;19.45;;;;;;;6.25;59.01;95708.41;1824407;77;21144;-54
2020/12/30 07:44:56;;;;;;;28.73;17.52;;;;;;;6.26;58.34;95699.26;1816455;77;21170;-53
2020/12/30 07:47:28;;;;;;;28.42;16.07;;;;;;;6.18;58.14;95705.86;1815529;78;21130;-54
2020/12/30 07:50:00;;;;;;;37.28;18.12;;;;;;;5.96;58.57;95698.73;1841990;77;21757;-53
2020/12/30 07:52:27;;;;;;;26.33;15.78;;;;;;;5.86;59.31;95694.65;1787857;79;21609;-54
2020/12/30 07:54:57;;;;;;;27.50;13.98;;;;;;;6.14;59.32;95694.13;1845969;77;21188;-53
2020/12/30 07:57:25;;;;;;;21.97;12.60;;;;;;;6.71;57.70;95692.38;1806436;79;21054;-53
2020/12/30 07:59:54;;;;;;;28.23;16.57;;;;;;;7.07;56.21;95700.20;1849232;77;21470;-54
2020/12/30 08:02:24;;;;;;;26.17;15.35;;;;;;;7.36;55.06;95694.26;1806532;79;22355;-53
2020/12/30 08:05:01;;;;;;;24.98;14.00;;;;;;;7.49;54.84;95684.69;1848855;77;21123;-54
2020/12/30 08:07:31;;;;;;;;;;;;;;;7.70;55.06;95683.59;1779928;79;21148;-53
2020/12/30 08:09:59;;;;;;;24.05;13.38;;;;;;;7.94;54.18;95680.13;1773103;81;21852;-53
2020/12/30 08:12:27;;;;;;;15.43;10.00;;;;;;;8.18;53.75;95682.64;1849195;77;21754;-54
2020/12/30 08:14:55;;;;;;;23.62;13.28;;;;;;;8.77;52.77;95672.56;1806531;78;22700;-54
2020/12/30 08:17:23;;;;;;;20.95;12.82;;;;;;;9.64;51.69;95678.20;1818875;77;21085;-54
2020/12/30 08:19:51;;;;;;;25.20;16.45;;;;;;;10.61;49.21;95680.55;1761277;79;21144;-55
2020/12/30 08:22:28;;;;;;;24.40;15.05;;;;;;;11.68;47.50;95672.62;1829311;77;21124;-53
2020/12/30 08:24:58;;;;;;;15.35;9.53;;;;;;;12.70;44.67;95668.09;1821368;78;21050;-54
2020/12/30 08:27:30;;;;;;;6.75;3.70;;;;;;;13.17;41.81;95672.34;1816773;78;21453;-54
2020/12/30 08:30:01;;;;;;;3.52;2.60;;;;;;;13.08;40.57;95668.35;1810958;78;21081;-54
2020/12/30 08:32:41;;;;;;;3.87;2.70;;;;;;;13.12;39.93;95666.76;1810950;79;21105;-54
2020/12/30 08:35:19;;;;;;;4.65;2.65;;;;;;;13.44;39.56;95688.45;1833238;77;21545;-54
2020/12/30 08:37:56;;;;;;;4.25;2.52;;;;;;;13.52;39.23;95666.38;1819288;77;21482;-54
2020/12/30 08:40:28;;;;;;;3.62;2.22;;;;;;;13.61;38.72;95667.27;1831624;77;22785;-54
2020/12/30 08:43:13;;;;;;;3.77;2.42;;;;;;;13.80;38.15;95661.08;1844052;77;20946;-54
2020/12/30 08:46:07;;;;;;;7.47;3.10;;;;;;;14.07;37.98;95669.25;1810961;79;21065;-54
2020/12/30 08:48:42;;;;;;;4.10;2.65;;;;;;;14.24;37.45;95670.17;1810917;79;21046;-54
2020/12/30 08:51:10;;;;;;;5.70;2.62;;;;;;;13.92;37.90;95668.17;1819751;77;21116;-54
2020/12/30 08:53:41;;;;;;;8.85;2.80;;;;;;;13.67;37.96;95667.98;1843156;77;21513;-53
2020/12/30 08:56:09;;;;;;;11.57;2.92;;;;;;;13.34;38.50;95658.56;1843988;77;21919;-53
2020/12/30 08:58:36;;;;;;;3.77;2.40;;;;;;;13.34;39.04;95649.91;1844335;77;21034;-53
2020/12/30 09:01:21;;;;;;;4.30;3.00;;;;;;;13.58;38.40;95642.80;1844316;77;21056;-53
2020/12/30 09:03:49;;;;;;;2.47;2.22;;;;;;;13.52;38.54;95634.27;1840310;77;21736;-53
2020/12/30 09:06:29;;;;;;;3.75;2.22;;;;;;;13.56;37.65;95633.83;1832537;77;21176;-53
2020/12/30 09:09:14;;;;;;;9.35;2.87;;;;;;;14.05;37.14;95627.36;1843561;77;21161;-53
2020/12/30 09:11:47;;;;;;;4.85;2.45;;;;;;;14.85;36.09;95614.05;1844182;77;21061;-54
2020/12/30 09:14:18;;;;;;;3.85;2.67;;;;;;;15.58;34.70;95612.05;1844098;77;21057;-53
2020/12/30 09:17:04;;;;;;;2.98;2.45;;;;;;;16.01;33.32;95615.81;1844103;77;21057;-54
2020/12/30 09:19:29;;;;;;;3.72;2.27;;;;;;;15.81;33.29;95593.92;1842886;77;22198;-54
2020/12/30 09:22:09;;;;;;;3.08;2.05;;;;;;;16.09;33.01;95596.68;1844127;77;21164;-53
2020/12/30 09:24:38;;;;;;;4.58;2.67;;;;;;;16.47;32.21;95582.50;1844075;77;21499;-53
2020/12/30 09:27:22;;;;;;;3.42;2.15;;;;;;;16.75;32.23;95577.63;1845016;77;21620;-54
2020/12/30 09:30:13;;;;;;;6.72;2.83;;;;;;;17.26;31.08;95570.64;1852353;77;21113;-55
2020/12/30 09:32:43;;;;;;;11.85;2.67;;;;;;;17.77;30.69;95565.63;1852413;77;21187;-55
2020/12/30 09:35:14;;;;;;;6.10;2.35;;;;;;;18.17;29.43;95558.39;1801821;78;21138;-55
2020/12/30 09:37:51;;;;;;;6.87;2.70;;;;;;;18.30;29.87;95547.73;1818151;78;21074;-55
2020/12/30 09:40:19;;;;;;;2.95;2.20;;;;;;;19.00;28.86;95547.69;1818966;78;21054;-55
2020/12/30 09:42:47;;;;;;;2.72;1.45;;;;;;;19.57;27.34;95540.74;1818941;78;21180;-55
2020/12/30 09:45:20;;;;;;;7.30;1.90;;;;;;;19.73;26.49;95541.45;1818966;78;21362;-55
2020/12/30 09:47:47;;;;;;;7.92;2.30;;;;;;;19.57;27.44;95539.91;1818929;78;21177;-54
2020/12/30 09:50:17;;;;;;;1.57;1.40;;;;;;;19.86;27.06;95537.63;1832369;77;21054;-53
2020/12/30 09:52:46;;;;;;;4.80;1.70;;;;;;;20.30;26.52;95529.09;1777715;80;21595;-54
2020/12/30 09:55:14;;;;;;;3.90;1.80;;;;;;;20.82;25.84;95534.79;1756215;81;21082;-53
2020/12/30 09:57:42;;;;;;;2.75;1.80;;;;;;;21.40;25.24;95528.52;1761386;81;21278;-54
2020/12/30 10:00:10;;;;;;;5.90;1.90;;;;;;;21.87;24.53;95533.33;1762206;80;21138;-54
2020/12/30 10:02:38;;;;;;;6.03;2.50;;;;;;;22.55;24.50;95520.77;1774625;80;21142;-54
2020/12/30 10:05:05;;;;;;;4.97;2.52;;;;;;;23.56;23.66;95507.80;1767912;80;21840;-54
2020/12/30 10:07:35;;;;;;;4.22;2.80;;;;;;;24.32;22.94;95509.32;1761430;80;21077;-54
2020/12/30 10:10:03;;;;;;;4.22;2.70;;;;;;;24.95;21.91;95502.88;1761185;81;22532;-54
2020/12/30 10:12:30;;;;;;;3.40;2.65;;;;;;;25.33;21.14;95503.06;1761162;81;21120;-54
2020/12/30 10:14:58;;;;;;;3.92;2.95;;;;;;;25.27;20.42;95509.80;1761316;81;21140;-53
2020/12/30 10:17:26;;;;;;;2.27;2.00;;;;;;;24.89;20.75;95502.44;1761168;81;21077;-54
2020/12/30 10:19:53;;;;;;;4.35;2.85;;;;;;;24.12;21.14;95492.84;1778419;80;21061;-54
2020/12/30 10:22:21;;;;;;;5.37;3.03;;;;;;;23.16;22.26;95499.64;1790514;80;21192;-54
2020/12/30 10:24:49;;;;;;;6.92;3.67;;;;;;;22.15;23.12;95482.56;1792596;80;21149;-54
2020/12/30 10:27:17;;;;;;;5.85;3.52;;;;;;;21.41;24.17;95491.87;1789704;80;21176;-54
2020/12/30 10:29:45;;;;;;;4.92;4.12;;;;;;;20.89;25.05;95488.19;1781309;80;21070;-54
2020/12/30 10:32:13;;;;;;;7.72;4.30;;;;;;;20.28;25.67;95479.24;1781430;80;21053;-54
2020/12/30 10:34:41;;;;;;;6.63;4.47;;;;;;;19.85;26.66;95462.30;1772417;80;23396;-54
2020/12/30 10:37:09;;;;;;;7.08;4.17;;;;;;;19.67;26.95;95471.48;1750328;81;21609;-53
2020/12/30 10:39:38;;;;;;;7.20;4.65;;;;;;;19.39;27.53;95456.19;1750216;81;21570;-53
2020/12/30 10:42:06;;;;;;;8.08;4.75;;;;;;;19.37;27.54;95451.63;1750506;82;21085;-53
2020/12/30 10:44:33;;;;;;;8.65;5.03;;;;;;;19.18;27.77;95448.66;1750239;82;21086;-54
2020/12/30 10:47:01;;;;;;;9.35;5.85;;;;;;;18.94;28.11;95448.03;1750449;82;21212;-54
2020/12/30 10:49:29;;;;;;;13.43;6.47;;;;;;;18.44;29.03;95447.59;1761668;80;21141;-55
2020/12/30 10:51:58;;;;;;;9.98;7.37;;;;;;;17.95;29.83;95449.05;1769910;80;21161;-55
2020/12/30 10:54:25;;;;;;;10.95;7.70;;;;;;;17.81;30.19;95446.70;1763106;81;21070;-54
2020/12/30 10:56:54;;;;;;;14.93;8.03;;;;;;;17.35;30.78;95446.38;1763334;81;21067;-54
2020/12/30 10:59:22;;;;;;;20.25;10.80;;;;;;;16.95;31.57;95435.73;1739777;81;21566;-55
2020/12/30 11:01:53;;;;;;;15.40;9.08;;;;;;;16.44;32.82;95437.53;1764877;80;21122;-55
2020/12/30 11:04:21;;;;;;;15.48;10.18;;;;;;;16.15;33.03;95430.66;1768656;80;21116;-53
2020/12/30 11:06:50;;;;;;;22.67;10.20;;;;;;;15.63;34.13;95427.23;1781183;80;21097;-55
2020/12/30 11:09:17;;;;;;;15.30;10.45;;;;;;;15.23;34.91;95425.84;1781121;80;21189;-55
2020/12/30 11:11:48;;;;;;;17.52;10.35;;;;;;;15.02;35.56;95434.69;1781062;80;21355;-54
2020/12/30 11:14:16;;;;;;;19.15;10.25;;;;;;;14.80;36.01;95410.87;1781167;80;21094;-53
2020/12/30 11:16:49;;;;;;;17.50;10.85;;;;;;;14.41;37.14;95418.44;1781243;80;21063;-55
2020/12/30 11:19:18;;;;;;;18.30;11.05;;;;;;;14.09;37.85;95399.14;1746606;81;21204;-54
2020/12/30 11:21:52;;;;;;;;;;;;;;;13.57;38.79;95419.66;1730636;80;21073;-54
2020/12/30 11:24:20;;;;;;;18.65;10.55;;;;;;;13.18;39.77;95422.66;1781174;80;22870;-55
2020/12/30 11:26:48;;;;;;;18.57;10.43;;;;;;;13.03;40.33;95418.48;1730023;82;21232;-54
2020/12/30 11:29:16;;;;;;;15.90;10.32;;;;;;;12.96;40.90;95416.98;1791919;79;21053;-54
2020/12/30 11:31:44;;;;;;;;;;;;;;;12.84;40.71;95426.79;1777273;80;21062;-54
2020/12/30 11:34:12;;;;;;;22.35;11.12;;;;;;;12.79;41.20;95405.60;1764105;80;20225;-54
2020/12/30 11:36:40;;;;;;;19.40;10.00;;;;;;;12.91;41.46;95409.27;1742610;82;22077;-54
2020/12/30 11:39:07;;;;;;;23.30;12.15;;;;;;;13.09;40.88;95398.33;1728395;83;21227;-54
2020/12/30 11:41:35;;;;;;;25.05;12.73;;;;;;;13.15;41.72;95399.52;1742370;82;21077;-54
2020/12/30 11:44:03;;;;;;;29.65;13.98;;;;;;;13.24;41.58;95403.32;1742599;82;21079;-54
2020/12/30 11:46:31;;;;;;;21.93;12.15;;;;;;;13.36;41.66;95413.02;1749297;80;21551;-54
2020/12/30 11:48:59;;;;;;;18.48;10.75;;;;;;;13.44;41.58;95408.35;1777208;79;21439;-54